createdAt,value
2019-04-06T00:02:15.191Z,14.37
2019-04-06T00:05:39.033Z,16.83
2019-04-06T00:09:03.968Z,15.07
2019-04-06T00:12:27.836Z,15.33
2019-04-06T00:15:51.583Z,15.67
2019-04-06T00:19:15.477Z,15.13
2019-04-06T00:22:39.366Z,16.43
2019-04-06T00:26:03.404Z,18.87
2019-04-06T00:29:27.236Z,21.17
2019-04-06T00:32:55.719Z,22.20
2019-04-06T00:36:19.483Z,14.70
2019-04-06T00:39:43.409Z,15.13
2019-04-06T00:43:07.157Z,15.80
2019-04-06T00:46:31.066Z,14.87
2019-04-06T00:49:55.044Z,14.57
2019-04-06T00:53:18.756Z,14.63
2019-04-06T00:56:42.906Z,14.00
2019-04-06T01:00:08.012Z,14.87
2019-04-06T01:03:31.906Z,16.17
2019-04-06T01:06:55.789Z,17.23
2019-04-06T01:10:19.604Z,16.50
2019-04-06T01:13:43.384Z,15.10
2019-04-06T01:17:07.496Z,15.57
2019-04-06T01:20:31.259Z,22.53
2019-04-06T01:23:55.054Z,19.77
2019-04-06T01:27:18.941Z,16.57
2019-04-06T01:30:42.794Z,16.90
2019-04-06T01:34:06.587Z,17.87
2019-04-06T01:37:30.385Z,14.90
2019-04-06T01:40:54.191Z,15.80
2019-04-06T01:44:17.991Z,18.00
2019-04-06T01:47:41.848Z,18.17
2019-04-06T01:51:05.618Z,16.67
2019-04-06T01:54:29.320Z,17.10
2019-04-06T01:57:53.188Z,15.13
2019-04-06T02:01:18.702Z,15.53
2019-04-06T02:04:42.533Z,14.33
2019-04-06T02:08:06.259Z,16.07
2019-04-06T02:11:30.138Z,15.67
2019-04-06T02:14:53.872Z,24.27
2019-04-06T02:18:17.666Z,23.87
2019-04-06T02:21:41.427Z,21.90
2019-04-06T02:25:06.941Z,17.37
2019-04-06T02:28:30.841Z,16.57
2019-04-06T02:32:13.036Z,15.60
2019-04-06T02:35:44.537Z,15.23
2019-04-06T02:39:12.914Z,11.93
2019-04-06T02:42:47.084Z,15.53
2019-04-06T02:46:10.895Z,15.17
2019-04-06T02:49:34.748Z,13.20
2019-04-06T02:52:58.474Z,14.10
2019-04-06T02:56:22.328Z,12.37
2019-04-06T02:59:46.075Z,13.47
2019-04-06T03:03:09.888Z,13.70
2019-04-06T03:06:33.674Z,14.77
2019-04-06T03:09:59.047Z,10.30
2019-04-06T03:13:23.397Z,13.37
2019-04-06T03:16:47.277Z,14.83
2019-04-06T03:20:11.652Z,19.93
2019-04-06T03:23:49.687Z,14.13
2019-04-06T03:27:02.801Z,17.43
2019-04-06T03:30:26.365Z,13.63
2019-04-06T03:33:50.087Z,12.67
2019-04-06T03:37:13.989Z,12.07
2019-04-06T03:40:38.037Z,12.87
2019-04-06T03:44:02.000Z,12.47
2019-04-06T03:47:25.800Z,11.40
2019-04-06T03:50:49.688Z,12.37
2019-04-06T03:54:13.578Z,11.50
2019-04-06T03:57:37.499Z,13.03
2019-04-06T04:01:01.236Z,13.73
2019-04-06T04:04:25.723Z,10.87
2019-04-06T04:07:52.397Z,10.13
2019-04-06T04:11:16.443Z,12.07
2019-04-06T04:14:40.199Z,12.40
2019-04-06T04:18:04.327Z,11.67
2019-04-06T04:21:28.334Z,15.30
2019-04-06T04:24:52.620Z,16.17
2019-04-06T04:28:16.458Z,13.97
2019-04-06T04:31:40.437Z,15.00
2019-04-06T04:35:05.764Z,11.30
2019-04-06T04:38:29.712Z,13.53
2019-04-06T04:41:53.714Z,12.87
2019-04-06T04:45:17.771Z,12.30
2019-04-06T04:48:41.652Z,13.30
2019-04-06T04:52:05.567Z,13.03
2019-04-06T04:55:29.383Z,13.33
2019-04-06T04:58:53.377Z,12.03
2019-04-06T05:02:17.113Z,12.93
2019-04-06T05:05:40.976Z,12.77
2019-04-06T05:09:06.809Z,13.30
2019-04-06T05:12:30.581Z,12.77
2019-04-06T05:16:14.255Z,12.87
2019-04-06T05:19:38.071Z,9.90
2019-04-06T05:23:02.200Z,13.23
2019-04-06T05:26:36.600Z,11.83
2019-04-06T05:29:51.531Z,13.93
2019-04-06T05:33:15.303Z,14.10
2019-04-06T05:36:39.265Z,13.20
2019-04-06T05:40:03.004Z,13.17
2019-04-06T05:43:26.833Z,14.37
2019-04-06T05:46:50.611Z,12.50
2019-04-06T05:50:14.572Z,12.40
2019-04-06T05:53:38.867Z,12.47
2019-04-06T05:57:02.676Z,12.97
2019-04-06T06:00:26.472Z,14.60
2019-04-06T06:03:50.594Z,13.83
2019-04-06T06:07:14.417Z,13.80
2019-04-06T06:10:38.587Z,12.57
2019-04-06T06:14:03.367Z,11.40
2019-04-06T06:17:27.305Z,12.23
2019-04-06T06:20:51.117Z,12.37
2019-04-06T06:24:15.338Z,13.73
2019-04-06T06:27:39.166Z,13.73
2019-04-06T06:31:03.049Z,13.53
2019-04-06T06:34:27.266Z,13.57
2019-04-06T06:37:51.729Z,12.57
2019-04-06T06:41:15.546Z,13.57
2019-04-06T06:44:39.572Z,12.57
2019-04-06T06:48:03.651Z,13.43
2019-04-06T06:51:27.529Z,11.90
2019-04-06T06:54:51.846Z,13.07
2019-04-06T06:58:24.647Z,13.97
2019-04-06T07:01:41.563Z,14.37
2019-04-06T07:05:07.518Z,14.67
2019-04-06T07:08:31.490Z,13.23
2019-04-06T07:11:55.931Z,13.57
2019-04-06T07:15:20.538Z,13.50
2019-04-06T07:18:44.576Z,12.63
2019-04-06T07:22:08.774Z,14.17
2019-04-06T07:25:33.228Z,14.03
2019-04-06T07:28:57.550Z,15.23
2019-04-06T07:32:21.618Z,14.60
2019-04-06T07:35:45.722Z,14.90
2019-04-06T07:39:10.287Z,14.00
2019-04-06T07:42:34.591Z,14.80
2019-04-06T07:45:58.928Z,15.00
2019-04-06T07:49:24.101Z,15.83
2019-04-06T07:52:51.957Z,14.30
2019-04-06T07:56:17.101Z,16.90
2019-04-06T07:59:41.395Z,14.80
2019-04-06T08:03:06.193Z,16.37
2019-04-06T08:06:31.663Z,15.13
2019-04-06T08:09:56.348Z,15.27
2019-04-06T08:13:21.575Z,16.40
2019-04-06T08:16:45.761Z,17.53
2019-04-06T08:20:10.321Z,15.30
2019-04-06T08:23:34.425Z,15.57
2019-04-06T08:26:59.211Z,16.30
2019-04-06T08:30:24.465Z,17.27
2019-04-06T08:33:48.452Z,17.30
2019-04-06T08:37:12.274Z,15.20
2019-04-06T08:40:36.160Z,16.30
2019-04-06T08:44:00.117Z,17.90
2019-04-06T08:47:24.052Z,15.60
2019-04-06T08:50:47.939Z,15.90
2019-04-06T08:54:12.014Z,16.60
2019-04-06T08:57:35.969Z,15.43
2019-04-06T09:01:00.166Z,16.07
2019-04-06T09:04:23.956Z,17.50
2019-04-06T09:07:47.800Z,17.67
2019-04-06T09:11:11.798Z,17.60
2019-04-06T09:14:35.563Z,16.50
2019-04-06T09:17:59.397Z,17.13
2019-04-06T09:21:23.121Z,20.57
2019-04-06T09:24:47.248Z,18.03
2019-04-06T09:28:11.254Z,16.73
2019-04-06T09:31:35.080Z,16.67
2019-04-06T09:34:59.003Z,17.87
2019-04-06T09:38:22.691Z,17.97
2019-04-06T09:41:46.829Z,17.60
2019-04-06T09:45:15.881Z,16.73
2019-04-06T09:48:53.466Z,16.53
2019-04-06T09:52:21.813Z,18.70
2019-04-06T09:55:50.512Z,18.23
2019-04-06T09:59:35.863Z,17.40
2019-04-06T10:03:13.638Z,15.67
2019-04-06T10:06:55.032Z,16.67
2019-04-06T10:10:39.746Z,15.87
2019-04-06T10:14:21.864Z,15.97
2019-04-06T10:17:48.351Z,16.63
2019-04-06T10:21:30.361Z,17.63
2019-04-06T10:25:11.631Z,15.30
2019-04-06T10:28:53.224Z,16.23
2019-04-06T10:32:22.041Z,15.83
2019-04-06T10:36:05.888Z,15.70
2019-04-06T10:39:34.134Z,16.37
2019-04-06T10:43:03.153Z,18.27
2019-04-06T10:46:40.007Z,22.90
2019-04-06T10:50:06.394Z,17.60
2019-04-06T10:53:36.283Z,19.57
2019-04-06T10:57:17.010Z,21.47
2019-04-06T11:00:51.817Z,18.37
2019-04-06T11:04:17.458Z,16.20
2019-04-06T11:07:52.734Z,15.83
2019-04-06T11:11:30.924Z,15.50
2019-04-06T11:14:59.421Z,17.77
2019-04-06T11:18:43.613Z,15.93
2019-04-06T11:22:11.798Z,17.50
2019-04-06T11:25:37.104Z,21.30
2019-04-06T11:29:05.361Z,22.23
2019-04-06T11:32:30.723Z,16.67
2019-04-06T11:36:05.511Z,15.20
2019-04-06T11:39:31.109Z,15.47
2019-04-06T11:42:56.900Z,16.60
2019-04-06T11:46:38.628Z,16.73
2019-04-06T11:50:22.537Z,18.13
2019-04-06T11:53:57.741Z,16.03
2019-04-06T11:57:23.262Z,17.63
2019-04-06T12:00:54.929Z,16.03
2019-04-06T12:04:23.011Z,17.57
2019-04-06T12:08:05.731Z,17.07
2019-04-06T12:11:46.113Z,16.50
2019-04-06T12:15:14.932Z,18.30
2019-04-06T12:18:48.858Z,15.20
2019-04-06T12:22:29.560Z,15.43
2019-04-06T12:25:57.953Z,16.13
2019-04-06T12:29:27.379Z,17.33
2019-04-06T12:33:01.771Z,15.73
2019-04-06T12:36:29.766Z,16.70
2019-04-06T12:40:09.184Z,16.40
2019-04-06T12:43:34.556Z,15.90
2019-04-06T12:47:06.587Z,15.60
2019-04-06T12:50:32.218Z,16.90
2019-04-06T12:54:01.275Z,14.93
2019-04-06T12:57:49.943Z,16.43
2019-04-06T13:01:18.124Z,18.60
2019-04-06T13:04:43.563Z,17.67
2019-04-06T13:08:10.035Z,17.27
2019-04-06T13:11:51.450Z,16.30
2019-04-06T13:15:27.093Z,15.47
2019-04-06T13:18:55.476Z,15.63
2019-04-06T13:22:39.467Z,15.47
2019-04-06T13:26:10.300Z,16.63
2019-04-06T13:34:15.875Z,17.07
2019-04-06T13:37:47.376Z,18.63
2019-04-06T13:41:18.826Z,17.00
2019-04-06T13:44:44.623Z,14.70
2019-04-06T13:48:19.151Z,16.90
2019-04-06T13:51:47.549Z,17.23
2019-04-06T13:55:13.270Z,16.40
2019-04-06T13:58:38.776Z,19.23
2019-04-06T14:02:16.243Z,16.40
2019-04-06T14:06:30.540Z,16.40
2019-04-06T14:10:12.752Z,15.17
2019-04-06T14:13:47.695Z,15.53
2019-04-06T14:17:25.763Z,16.37
2019-04-06T14:20:51.261Z,18.30
2019-04-06T14:24:16.668Z,17.43
2019-04-06T14:27:58.205Z,17.10
2019-04-06T14:31:30.922Z,20.93
2019-04-06T14:35:12.823Z,16.93
2019-04-06T14:38:41.208Z,21.63
2019-04-06T14:42:12.747Z,23.07
2019-04-06T14:45:50.375Z,18.70
2019-04-06T14:49:30.204Z,20.50
2019-04-06T14:52:48.536Z,16.20
2019-04-06T14:56:16.777Z,19.80
2019-04-06T14:59:48.191Z,21.70
2019-04-06T15:03:13.733Z,16.60
2019-04-06T15:06:45.205Z,19.20
2019-04-06T15:10:13.535Z,18.90
2019-04-06T15:13:55.254Z,19.33
2019-04-06T15:17:26.730Z,19.33
2019-04-06T15:20:58.533Z,20.13
2019-04-06T15:24:24.034Z,20.87
2019-04-06T15:27:52.352Z,20.20
2019-04-06T15:31:20.324Z,19.67
2019-04-06T15:34:51.660Z,21.17
2019-04-06T15:38:17.089Z,20.17
2019-04-06T15:41:54.344Z,33.03
2019-04-06T15:45:24.473Z,44.33
2019-04-06T15:49:06.846Z,38.57
2019-04-06T15:52:32.355Z,33.73
2019-04-06T15:56:35.311Z,35.67
2019-04-06T16:00:10.117Z,27.00
2019-04-06T16:03:41.877Z,24.20
2019-04-06T16:07:13.490Z,24.83
2019-04-06T16:10:55.327Z,29.10
2019-04-06T16:14:20.833Z,23.73
2019-04-06T16:17:47.186Z,24.97
2019-04-06T16:21:29.025Z,22.60
2019-04-06T16:25:00.449Z,23.67
2019-04-06T16:28:31.418Z,23.43
2019-04-06T16:31:56.899Z,22.97
2019-04-06T16:35:28.424Z,22.30
2019-04-06T16:39:10.526Z,22.60
2019-04-06T16:42:52.636Z,22.87
2019-04-06T16:46:30.126Z,25.93
2019-04-06T16:50:02.062Z,27.23
2019-04-06T16:53:44.173Z,37.73
2019-04-06T16:57:10.472Z,43.73
2019-04-06T17:00:39.139Z,30.50
2019-04-06T17:04:10.392Z,94.70
2019-04-06T17:07:47.887Z,81.00
2019-04-06T17:11:20.785Z,26.70
2019-04-06T17:14:51.856Z,57.77
2019-04-06T17:18:20.861Z,40.40
2019-04-06T17:21:55.287Z,41.27
2019-04-06T17:25:24.482Z,143.33
2019-04-06T17:28:50.630Z,44.03
2019-04-06T17:32:35.989Z,32.60
2019-04-06T17:36:05.842Z,27.47
2019-04-06T17:39:41.348Z,25.83
2019-04-06T17:43:25.040Z,33.23
2019-04-06T17:46:56.320Z,34.43
2019-04-06T17:50:24.535Z,45.87
2019-04-06T17:53:50.558Z,35.60
2019-04-06T17:57:32.302Z,31.00
2019-04-06T18:00:57.715Z,29.90
2019-04-06T18:04:35.871Z,32.83
2019-04-06T18:08:04.225Z,33.70
2019-04-06T18:11:52.889Z,37.30
2019-04-06T18:15:17.689Z,56.90
2019-04-06T18:18:42.378Z,47.23
2019-04-06T18:22:06.576Z,84.57
2019-04-06T18:25:30.473Z,46.57
2019-04-06T18:28:57.411Z,38.37
2019-04-06T18:32:28.319Z,29.13
2019-04-06T18:35:52.237Z,35.30
2019-04-06T18:39:18.785Z,35.40
2019-04-06T18:42:43.071Z,30.43
2019-04-06T18:46:09.151Z,29.83
2019-04-06T18:49:33.158Z,36.50
2019-04-06T18:52:58.743Z,35.10
2019-04-06T18:56:22.782Z,34.63
2019-04-06T18:59:47.051Z,35.83
2019-04-06T19:03:15.180Z,40.13
2019-04-06T19:06:36.757Z,45.33
2019-04-06T19:10:00.793Z,45.37
2019-04-06T19:13:24.858Z,37.33
2019-04-06T19:16:48.839Z,43.07
2019-04-06T19:20:13.068Z,39.27
2019-04-06T19:23:38.235Z,35.17
2019-04-06T19:27:02.636Z,44.07
2019-04-06T19:30:27.045Z,36.13
2019-04-06T19:33:51.156Z,32.73
2019-04-06T19:37:15.100Z,33.70
2019-04-06T19:40:40.118Z,34.70
2019-04-06T19:44:03.993Z,34.23
2019-04-06T19:47:27.790Z,32.70
2019-04-06T19:50:54.252Z,33.20
2019-04-06T19:54:18.775Z,33.10
2019-04-06T19:57:42.759Z,35.67
2019-04-06T20:01:06.974Z,41.77
2019-04-06T20:04:30.985Z,43.67
2019-04-06T20:07:55.037Z,40.23
2019-04-06T20:11:19.356Z,36.23
2019-04-06T20:14:43.298Z,42.53
2019-04-06T20:18:07.596Z,42.87
2019-04-06T20:21:31.941Z,47.43
2019-04-06T20:24:55.862Z,43.07
2019-04-06T20:28:21.547Z,42.73
2019-04-06T20:31:45.396Z,42.37
2019-04-06T20:35:09.742Z,44.87
2019-04-06T20:38:33.661Z,45.57
2019-04-06T20:41:57.640Z,47.17
2019-04-06T20:45:21.496Z,46.83
2019-04-06T20:48:45.833Z,46.10
2019-04-06T20:52:09.997Z,47.67
2019-04-06T20:55:34.375Z,44.73
2019-04-06T20:58:58.655Z,49.67
2019-04-06T21:02:22.671Z,45.93
2019-04-06T21:05:46.591Z,45.47
2019-04-06T21:09:14.190Z,47.17
2019-04-06T21:12:38.585Z,46.27
2019-04-06T21:16:02.663Z,48.23
2019-04-06T21:19:27.032Z,45.77
2019-04-06T21:22:50.828Z,48.13
2019-04-06T21:26:14.746Z,47.50
2019-04-06T21:29:38.750Z,46.57
2019-04-06T21:33:03.254Z,43.00
2019-04-06T21:36:27.307Z,42.90
2019-04-06T21:39:51.157Z,41.10
2019-04-06T21:43:15.866Z,43.50
2019-04-06T21:46:40.357Z,38.50
2019-04-06T21:50:10.155Z,44.93
2019-04-06T21:53:36.713Z,47.70
2019-04-06T21:57:01.066Z,45.83
2019-04-06T22:00:43.607Z,42.83
2019-04-06T22:04:22.609Z,43.77
2019-04-06T22:07:48.157Z,39.93
2019-04-06T22:11:08.846Z,38.73
2019-04-06T22:14:33.296Z,40.30
2019-04-06T22:17:57.161Z,38.90
2019-04-06T22:21:21.595Z,42.27
2019-04-06T22:24:46.306Z,40.83
2019-04-06T22:28:10.925Z,41.77
2019-04-06T22:31:34.979Z,40.33
2019-04-06T22:34:59.143Z,40.27
2019-04-06T22:38:23.092Z,40.60
2019-04-06T22:41:46.992Z,39.17
2019-04-06T22:45:12.571Z,36.57
2019-04-06T22:48:36.508Z,41.03
2019-04-06T22:52:00.252Z,37.33
2019-04-06T22:55:24.223Z,37.57
2019-04-06T22:58:47.993Z,42.93
2019-04-06T23:02:12.024Z,40.60
2019-04-06T23:05:37.555Z,39.70
2019-04-06T23:09:01.471Z,37.70
2019-04-06T23:12:25.519Z,34.37
2019-04-06T23:15:49.912Z,36.13
2019-04-06T23:19:14.337Z,34.90
2019-04-06T23:22:38.762Z,32.60
2019-04-06T23:26:02.665Z,30.67
2019-04-06T23:29:26.895Z,30.23
2019-04-06T23:32:50.788Z,25.77
2019-04-06T23:36:14.856Z,32.57
2019-04-06T23:39:39.021Z,30.53
2019-04-06T23:43:02.932Z,27.10
2019-04-06T23:46:26.705Z,24.60
2019-04-06T23:49:51.767Z,25.07
2019-04-06T23:53:16.026Z,23.73
2019-04-06T23:56:40.562Z,19.53
